Time;durP1;ratioP1;P1;durP2;ratioP2;P2;SDS_P1;SDS_P2;PMS_P1;PMS_P2;Temp;Humidity;BMP_temperature;BMP_pressure;BME280_temperature;BME280_humidity;BME280_pressure;Samples;Min_cycle;Max_cycle;Signal;HPM_P1;HPM_P2
2021/06/18 00:02:04;;;;;;;;;12.67;11.33;;;;;22.16;70.60;100797.56;4994522;28;51088;-53
2021/06/18 00:04:29;;;;;;;;;11.33;11.33;;;;;22.14;71.87;100801.09;4993902;28;51109;-52
2021/06/18 00:06:54;;;;;;;;;13.33;12.67;;;;;22.11;71.39;100794.06;4995089;28;51268;-49
2021/06/18 00:09:20;;;;;;;;;10.33;10.33;;;;;22.07;71.57;100800.25;4994734;28;51490;-50
2021/06/18 00:11:45;;;;;;;;;12.33;12.00;;;;;22.03;71.74;100794.13;4994301;28;51215;-49
2021/06/18 00:14:10;;;;;;;;;10.00;10.00;;;;;22.02;71.88;100784.44;4994937;28;51046;-53
2021/06/18 00:16:36;;;;;;;;;10.00;10.00;;;;;22.00;72.01;100777.41;4993728;28;50914;-53
2021/06/18 00:19:02;;;;;;;;;12.67;11.00;;;;;22.02;72.23;100773.88;4993331;28;52055;-53
2021/06/18 00:21:28;;;;;;;;;12.00;11.00;;;;;22.02;72.82;100772.97;4992926;28;51109;-52
2021/06/18 00:23:54;;;;;;;;;12.00;11.00;;;;;22.02;72.13;100773.88;4994313;28;51099;-51
2021/06/18 00:26:19;;;;;;;;;14.33;12.00;;;;;22.05;72.44;100769.44;4994605;28;50960;-49
2021/06/18 00:28:44;;;;;;;;;12.00;12.00;;;;;22.04;72.51;100773.84;4994550;28;53360;-52
2021/06/18 00:31:10;;;;;;;;;12.00;12.00;;;;;22.07;72.83;100775.59;4994518;28;51049;-53
2021/06/18 00:33:36;;;;;;;;;13.00;13.00;;;;;22.07;73.01;100781.75;4985403;28;51195;-53
2021/06/18 00:36:02;;;;;;;;;10.00;10.00;;;;;22.09;73.11;100784.38;4988587;28;51341;-50
2021/06/18 00:38:27;;;;;;;;;11.33;11.00;;;;;22.08;73.67;100780.84;5000749;28;52014;-51
2021/06/18 00:40:53;;;;;;;;;10.67;10.33;;;;;22.08;74.29;100778.22;4990430;28;51392;-49
2021/06/18 00:43:19;;;;;;;;;10.67;10.67;;;;;22.06;74.42;100772.06;4991617;28;51182;-49
2021/06/18 00:45:44;;;;;;;;;12.67;12.00;;;;;22.07;74.59;100775.59;4991598;28;50934;-50
2021/06/18 00:48:11;;;;;;;;;12.67;12.67;;;;;22.05;74.38;100780.91;4979014;28;51168;-51
2021/06/18 00:50:37;;;;;;;;;9.33;8.33;;;;;22.02;74.61;100770.31;4993942;28;50959;-52
2021/06/18 00:53:03;;;;;;;;;8.00;7.33;;;;;21.97;75.46;100767.72;4976443;28;51026;-48
2021/06/18 00:55:30;;;;;;;;;10.00;9.67;;;;;21.94;75.53;100764.19;4994720;28;51073;-53
2021/06/18 00:57:56;;;;;;;;;10.00;10.00;;;;;21.92;75.37;100772.13;4993539;28;52202;-49
2021/06/18 01:00:22;;;;;;;;;9.00;9.00;;;;;21.94;75.58;100777.41;4994323;28;51078;-50
2021/06/18 01:02:47;;;;;;;;;13.00;9.67;;;;;21.93;75.05;100780.94;4994203;28;50956;-52
2021/06/18 01:05:15;;;;;;;;;7.67;7.00;;;;;21.90;76.05;100774.81;4994408;28;50848;-54
2021/06/18 01:08:10;;;;;;;;;8.00;8.00;;;;;21.84;75.69;100766.03;4993002;28;51077;-52
2021/06/18 01:11:06;;;;;;;;;10.33;9.00;;;;;21.79;76.48;100771.31;4993827;28;51204;-53
2021/06/18 01:14:02;;;;;;;;;8.33;8.33;;;;;21.78;76.52;100764.28;4994246;28;51041;-53
2021/06/18 01:16:40;;;;;;;;;8.00;8.00;;;;;21.75;76.00;100766.94;4975797;28;51417;-51
2021/06/18 01:19:23;;;;;;;;;6.33;6.33;;;;;21.74;76.32;100773.13;4993321;28;52279;-51
2021/06/18 01:21:58;;;;;;;;;7.67;7.67;;;;;21.73;76.23;100774.00;4992608;28;51066;-51
2021/06/18 01:24:46;;;;;;;;;7.00;7.00;;;;;21.72;75.44;100761.69;4993706;28;51178;-53
2021/06/18 01:27:18;;;;;;;;;7.00;6.67;;;;;21.73;75.38;100772.22;4993631;28;50924;-49
2021/06/18 01:29:47;;;;;;;;;5.00;5.00;;;;;21.75;75.30;100764.28;4992342;28;52830;-51
2021/06/18 01:32:25;;;;;;;;;6.33;6.33;;;;;21.76;74.83;100760.78;4993030;28;51075;-52
2021/06/18 01:34:53;;;;;;;;;6.33;6.00;;;;;21.76;74.33;100739.66;4989361;28;51386;-48
2021/06/18 01:37:24;;;;;;;;;6.00;6.00;;;;;21.80;74.28;100728.16;4991490;28;51092;-49
2021/06/18 01:39:50;;;;;;;;;7.00;7.00;;;;;21.83;74.57;100741.34;4993359;28;50933;-49
2021/06/18 01:42:17;;;;;;;;;6.00;6.00;;;;;21.83;74.64;100733.44;4975398;28;51167;-49
2021/06/18 01:44:44;;;;;;;;;6.33;6.33;;;;;21.83;74.85;100733.44;4984291;28;51145;-51
2021/06/18 01:47:13;;;;;;;;;6.00;5.00;;;;;21.85;74.63;100731.66;4988148;28;51233;-51
2021/06/18 01:49:41;;;;;;;;;7.33;7.00;;;;;21.86;75.59;100722.84;4993300;28;51129;-53
2021/06/18 01:52:11;;;;;;;;;5.67;5.67;;;;;21.84;75.03;100719.31;4975249;28;51054;-49
2021/06/18 01:54:39;;;;;;;;;10.00;9.67;;;;;21.85;74.57;100718.44;4975807;28;51277;-52
2021/06/18 01:57:07;;;;;;;;;8.00;8.00;;;;;21.89;74.53;100717.50;4993242;28;50963;-54
2021/06/18 01:59:36;;;;;;;;;5.33;5.33;;;;;21.92;74.04;100713.13;4993206;28;51916;-51
2021/06/18 02:02:03;;;;;;;;;7.33;7.33;;;;;21.92;73.70;100706.03;4991587;28;51092;-50
2021/06/18 02:04:31;;;;;;;;;5.00;5.00;;;;;21.94;73.48;100711.31;4992302;28;51006;-50
2021/06/18 02:06:57;;;;;;;;;6.00;5.00;;;;;21.90;73.38;100708.72;4993306;28;51091;-51
2021/06/18 02:09:25;;;;;;;;;5.33;4.67;;;;;21.88;72.97;100702.56;4991301;28;51926;-49
2021/06/18 02:11:51;;;;;;;;;4.33;4.33;;;;;21.88;72.50;100694.63;4992787;28;50981;-51
2021/06/18 02:14:19;;;;;;;;;5.00;5.00;;;;;21.88;72.52;100709.63;4992259;28;51079;-52
2021/06/18 02:16:52;;;;;;;;;3.00;3.00;;;;;21.85;72.92;100712.28;4993169;28;52094;-51
2021/06/18 02:19:20;;;;;;;;;4.00;4.00;;;;;21.87;72.60;100714.03;4992642;28;52644;-52
2021/06/18 02:21:47;;;;;;;;;2.00;2.00;;;;;21.88;72.24;100718.41;4992958;28;51152;-48
2021/06/18 02:24:18;;;;;;;;;3.67;3.67;;;;;21.90;71.49;100718.41;4992883;28;51132;-52
2021/06/18 02:26:46;;;;;;;;;3.00;3.00;;;;;21.93;71.72;100706.94;4993056;28;50968;-50
2021/06/18 02:29:12;;;;;;;;;2.00;2.00;;;;;21.95;71.66;100691.97;4975181;28;52826;-52
2021/06/18 02:31:39;;;;;;;;;4.00;4.00;;;;;21.93;71.89;100678.75;4992086;28;52297;-50
2021/06/18 02:34:07;;;;;;;;;5.00;5.00;;;;;21.93;71.47;100686.69;4992433;28;51096;-50
2021/06/18 02:36:32;;;;;;;;;4.00;3.33;;;;;21.97;71.72;100672.56;4992945;28;51088;-50
2021/06/18 02:38:59;;;;;;;;;3.33;3.33;;;;;22.02;71.47;100675.16;5002225;28;51060;-51
2021/06/18 02:41:24;;;;;;;;;4.00;4.00;;;;;22.03;71.50;100664.56;4992349;28;50966;-50
2021/06/18 02:43:50;;;;;;;;;4.00;4.00;;;;;22.08;71.50;100674.22;4988134;28;51450;-50
2021/06/18 02:46:35;;;;;;;;;3.00;3.00;;;;;22.09;71.39;100668.94;4982313;28;51053;-52
2021/06/18 02:49:03;;;;;;;;;3.00;3.00;;;;;22.10;71.43;100673.31;4992382;28;52143;-51
2021/06/18 02:51:43;;;;;;;;;3.00;3.00;;;;;22.08;71.28;100675.09;4992122;28;51059;-53
2021/06/18 02:54:25;;;;;;;;;4.00;4.00;;;;;22.02;71.59;100668.09;4992504;28;51139;-51
2021/06/18 02:56:57;;;;;;;;;3.00;3.00;;;;;21.96;72.07;100667.28;4992737;28;51161;-51
2021/06/18 02:59:40;;;;;;;;;4.00;4.00;;;;;21.93;72.23;100672.56;4995834;28;53072;-52
2021/06/18 03:02:09;;;;;;;;;4.00;4.00;;;;;21.89;72.68;100667.28;4994407;28;51169;-52
2021/06/18 03:04:38;;;;;;;;;5.00;5.00;;;;;21.87;72.99;100677.00;4996205;28;51144;-51
2021/06/18 03:07:08;;;;;;;;;4.00;3.00;;;;;21.86;72.75;100669.09;4996084;28;51220;-51
2021/06/18 03:09:42;;;;;;;;;5.00;4.00;;;;;21.86;73.04;100664.69;4995305;28;50985;-50
2021/06/18 03:12:10;;;;;;;;;5.00;5.00;;;;;21.85;72.78;100665.59;4995526;28;51084;-51
2021/06/18 03:14:37;;;;;;;;;4.33;4.33;;;;;21.84;73.27;100650.59;4977997;28;51076;-53
2021/06/18 03:17:06;;;;;;;;;4.00;4.00;;;;;21.86;72.79;100666.44;4976815;28;51513;-52
2021/06/18 03:19:42;;;;;;;;;5.00;5.00;;;;;21.88;73.07;100665.53;4995273;28;51060;-51
2021/06/18 03:22:09;;;;;;;;;5.67;4.67;;;;;21.94;72.96;100666.38;4978077;28;51147;-51
2021/06/18 03:24:36;;;;;;;;;5.00;5.00;;;;;21.97;73.17;100664.63;4994156;28;50985;-53
2021/06/18 03:27:02;;;;;;;;;4.00;4.00;;;;;22.01;73.09;100662.81;4977505;28;51307;-52
2021/06/18 03:29:30;;;;;;;;;4.67;4.33;;;;;22.06;72.99;100676.88;4977752;28;52710;-53
2021/06/18 03:31:57;;;;;;;;;5.00;5.00;;;;;22.10;73.09;100686.53;4995318;28;51081;-52
2021/06/18 03:34:24;;;;;;;;;4.00;4.00;;;;;22.11;72.90;100706.81;4995694;28;50981;-53
2021/06/18 03:36:51;;;;;;;;;5.00;4.00;;;;;22.13;72.80;100725.31;4996774;28;50890;-53
2021/06/18 03:39:20;;;;;;;;;6.00;6.00;;;;;22.16;72.88;100742.03;5004187;28;52027;-52
2021/06/18 03:41:45;;;;;;;;;5.00;5.00;;;;;22.22;73.02;100746.41;4992022;28;51253;-51
2021/06/18 03:44:11;;;;;;;;;3.67;3.67;;;;;22.26;72.58;100742.84;4994148;28;51013;-50
2021/06/18 03:46:38;;;;;;;;;3.00;3.00;;;;;22.26;72.58;100741.97;4991268;28;51236;-51
2021/06/18 03:49:05;;;;;;;;;5.00;4.33;;;;;22.27;72.70;100733.13;4993699;28;53907;-48
2021/06/18 03:51:31;;;;;;;;;5.67;5.67;;;;;22.30;72.53;100722.53;4995161;28;50939;-51
2021/06/18 03:53:57;;;;;;;;;7.67;7.67;;;;;22.29;72.63;100718.13;4995199;28;51069;-51
2021/06/18 03:56:23;;;;;;;;;6.00;6.00;;;;;22.29;72.50;100716.34;4995051;28;51350;-50
2021/06/18 03:58:49;;;;;;;;;7.00;7.00;;;;;22.27;72.60;100717.25;4991151;28;51069;-49
2021/06/18 04:01:16;;;;;;;;;6.00;6.00;;;;;22.23;72.69;100712.91;4985147;28;51317;-50
2021/06/18 04:03:47;;;;;;;;;7.33;7.00;;;;;22.27;73.12;100709.31;4994562;28;51098;-50
2021/06/18 04:06:13;;;;;;;;;6.33;6.33;;;;;22.31;73.19;100700.47;4995409;28;51211;-50
2021/06/18 04:08:38;;;;;;;;;6.67;6.67;;;;;22.27;72.95;100701.38;4994167;28;50878;-52
2021/06/18 04:11:06;;;;;;;;;6.00;6.00;;;;;22.21;73.11;100696.16;4994266;28;51143;-53
2021/06/18 04:13:32;;;;;;;;;7.33;7.33;;;;;22.21;73.39;100697.06;4995102;28;51105;-53
2021/06/18 04:15:58;;;;;;;;;9.00;8.67;;;;;22.22;73.46;100692.63;4992339;28;51035;-48
2021/06/18 04:18:24;;;;;;;;;10.00;10.00;;;;;22.19;73.51;100696.16;4995802;28;51270;-50
2021/06/18 04:20:51;;;;;;;;;9.33;8.33;;;;;22.17;73.11;100697.97;4979401;28;51100;-51
2021/06/18 04:23:18;;;;;;;;;6.33;6.33;;;;;22.14;73.40;100684.75;4994816;28;51277;-51
2021/06/18 04:25:44;;;;;;;;;10.00;10.00;;;;;22.10;73.52;100686.53;4993220;28;50997;-51
2021/06/18 04:28:09;;;;;;;;;8.00;8.00;;;;;22.08;73.33;100690.94;4994417;28;52288;-48
2021/06/18 04:30:34;;;;;;;;;8.33;8.33;;;;;22.06;73.52;100681.28;4994596;28;51089;-51
2021/06/18 04:33:00;;;;;;;;;9.33;9.00;;;;;22.06;73.92;100682.16;4994855;28;50930;-51
2021/06/18 04:35:25;;;;;;;;;9.00;9.00;;;;;22.06;74.25;100670.69;4994343;28;51295;-48
2021/06/18 04:37:50;;;;;;;;;9.00;9.00;;;;;22.07;74.25;100664.56;5003896;28;51973;-54
2021/06/18 04:40:16;;;;;;;;;11.00;10.00;;;;;22.09;74.34;100666.28;4992481;28;51142;-50
2021/06/18 04:42:41;;;;;;;;;9.00;9.00;;;;;22.16;74.53;100670.63;4994356;28;52276;-52
2021/06/18 04:45:08;;;;;;;;;8.67;8.67;;;;;22.23;75.12;100673.25;4992876;28;51219;-48
2021/06/18 04:47:34;;;;;;;;;9.00;9.00;;;;;22.32;74.71;100666.97;4994140;28;52013;-54
2021/06/18 04:49:59;;;;;;;;;10.67;10.00;;;;;22.45;74.66;100655.41;4993994;28;51195;-50
2021/06/18 04:52:25;;;;;;;;;10.33;10.00;;;;;22.59;74.15;100652.63;4993938;28;51124;-52
2021/06/18 04:54:54;;;;;;;;;11.33;11.33;;;;;22.78;73.84;100655.09;4976826;28;51368;-49
2021/06/18 04:57:20;;;;;;;;;9.33;8.67;;;;;22.94;73.35;100654.03;4993840;28;51107;-52
2021/06/18 04:59:45;;;;;;;;;9.33;9.33;;;;;23.15;72.41;100654.66;4992712;28;51052;-51
2021/06/18 05:02:11;;;;;;;;;8.33;8.00;;;;;23.36;71.94;100657.97;4993137;28;51101;-49
2021/06/18 05:04:36;;;;;;;;;10.00;9.00;;;;;23.77;71.27;100657.38;4994190;28;51276;-52
2021/06/18 05:07:01;;;;;;;;;10.00;10.00;;;;;24.27;69.58;100662.81;4993783;28;51913;-51
2021/06/18 05:09:27;;;;;;;;;9.00;8.33;;;;;24.71;68.53;100652.28;4975909;28;51086;-50
2021/06/18 05:11:52;;;;;;;;;7.00;6.00;;;;;25.15;66.79;100647.00;4993017;28;50953;-51
2021/06/18 05:14:18;;;;;;;;;7.00;7.00;;;;;25.52;64.72;100653.28;4993904;28;51224;-49
2021/06/18 05:16:43;;;;;;;;;9.00;8.33;;;;;25.84;63.61;100655.28;4993616;28;51144;-50
2021/06/18 05:19:09;;;;;;;;;9.00;8.67;;;;;26.15;62.56;100655.38;4989790;28;51024;-52
2021/06/18 05:21:35;;;;;;;;;9.00;9.00;;;;;26.39;60.95;100658.34;4991883;28;51223;-49
2021/06/18 05:24:01;;;;;;;;;7.00;7.00;;;;;26.54;60.50;100657.06;4993434;28;50932;-49
2021/06/18 05:26:31;;;;;;;;;8.00;8.00;;;;;26.80;59.34;100658.16;4990206;28;52085;-50
2021/06/18 05:28:57;;;;;;;;;9.33;9.00;;;;;27.12;59.38;100661.69;4988643;28;51081;-49
2021/06/18 05:31:22;;;;;;;;;8.33;8.00;;;;;27.55;58.79;100663.13;4980287;28;51278;-52
2021/06/18 05:33:48;;;;;;;;;9.00;9.00;;;;;28.06;56.64;100663.31;4988306;28;51469;-51
2021/06/18 05:36:13;;;;;;;;;8.33;8.00;;;;;28.39;55.09;100666.66;4992480;28;52318;-52
2021/06/18 05:38:39;;;;;;;;;8.33;8.33;;;;;28.63;53.16;100661.38;4992479;28;51058;-52
2021/06/18 05:41:04;;;;;;;;;7.67;7.67;;;;;28.96;53.58;100657.53;4988398;28;51912;-50
2021/06/18 05:43:29;;;;;;;;;8.33;7.67;;;;;29.29;51.05;100661.66;4982283;28;52074;-50
2021/06/18 05:45:55;;;;;;;;;7.00;7.00;;;;;29.64;50.68;100659.41;4992974;28;51133;-50
2021/06/18 05:48:20;;;;;;;;;8.00;7.00;;;;;30.09;51.25;100656.72;4989274;28;51029;-49
2021/06/18 05:50:46;;;;;;;;;8.00;8.00;;;;;30.90;50.91;100662.16;4993179;28;51193;-50
2021/06/18 05:53:11;;;;;;;;;9.67;9.67;;;;;31.56;45.90;100662.69;4993201;28;51038;-49
2021/06/18 05:55:36;;;;;;;;;6.33;6.33;;;;;31.59;44.74;100664.38;4974715;28;57682;-53
2021/06/18 05:58:02;;;;;;;;;7.33;7.00;;;;;31.34;45.34;100648.59;4992920;28;51143;-54
2021/06/18 06:00:27;;;;;;;;;9.00;8.00;;;;;30.99;46.14;100647.47;4991604;28;51526;-53
2021/06/18 06:02:54;;;;;;;;;8.00;8.00;;;;;31.11;46.11;100645.16;4974387;28;51263;-54
2021/06/18 06:05:19;;;;;;;;;9.33;8.67;;;;;31.32;44.29;100651.34;4992528;28;50996;-49
2021/06/18 06:07:46;;;;;;;;;10.33;9.33;;;;;31.61;45.43;100656.22;4991178;28;51151;-51
2021/06/18 06:10:12;;;;;;;;;8.33;8.33;;;;;31.81;44.41;100658.81;4992467;28;51122;-53
2021/06/18 06:12:37;;;;;;;;;10.67;10.00;;;;;32.20;44.68;100673.03;4988417;28;51585;-49
2021/06/18 06:15:04;;;;;;;;;11.67;10.33;;;;;32.48;41.55;100678.81;4988851;28;51102;-53
2021/06/18 06:17:29;;;;;;;;;9.00;8.33;;;;;32.90;43.41;100673.94;4992444;28;51089;-50
2021/06/18 06:19:55;;;;;;;;;10.00;9.33;;;;;33.61;43.29;100679.91;4992564;28;51256;-52
2021/06/18 06:22:20;;;;;;;;;10.67;10.00;;;;;34.13;42.62;100679.69;4992399;28;51379;-55
2021/06/18 06:24:45;;;;;;;;;10.33;9.33;;;;;34.62;40.94;100673.19;4991763;28;52224;-53
2021/06/18 06:27:11;;;;;;;;;9.67;9.67;;;;;35.26;39.21;100671.06;4991741;28;50944;-51
2021/06/18 06:29:36;;;;;;;;;11.00;10.67;;;;;35.76;39.96;100670.53;4990368;28;51073;-53
2021/06/18 06:32:02;;;;;;;;;12.00;11.33;;;;;36.33;37.60;100657.72;4985089;28;51268;-51
2021/06/18 06:34:28;;;;;;;;;9.67;9.00;;;;;36.77;36.50;100672.69;4973410;28;51102;-49
2021/06/18 06:36:53;;;;;;;;;10.33;10.00;;;;;37.34;35.33;100663.28;4991376;28;51099;-50
2021/06/18 06:39:18;;;;;;;;;8.00;8.00;;;;;37.64;35.15;100675.56;4996231;28;51055;-50
2021/06/18 06:41:44;;;;;;;;;7.33;7.33;;;;;37.55;29.81;100671.66;4991733;28;51338;-53
2021/06/18 06:44:09;;;;;;;;;7.33;7.33;;;;;37.33;32.76;100664.28;4991027;28;51186;-53
2021/06/18 06:46:36;;;;;;;;;10.33;10.33;;;;;37.53;33.34;100660.94;4972732;28;51289;-52
2021/06/18 06:49:02;;;;;;;;;9.33;8.33;;;;;37.75;33.20;100659.34;4991890;28;51125;-52
2021/06/18 06:51:27;;;;;;;;;8.00;8.00;;;;;38.36;32.73;100659.31;4991625;28;51273;-52
2021/06/18 06:53:53;;;;;;;;;13.00;12.00;;;;;38.52;31.67;100664.41;4985988;28;51266;-51
2021/06/18 06:56:18;;;;;;;;;11.00;11.00;;;;;38.99;32.02;100672.44;4973598;28;51059;-52
2021/06/18 06:58:43;;;;;;;;;11.00;11.00;;;;;39.59;31.24;100680.28;4991974;28;51547;-53
2021/06/18 07:01:11;;;;;;;;;12.67;12.67;;;;;40.04;30.32;100675.69;4990158;28;51144;-48
2021/06/18 07:03:36;;;;;;;;;10.00;9.67;;;;;40.64;29.82;100680.50;4983356;28;53050;-51
2021/06/18 07:06:02;;;;;;;;;15.75;14.25;;;;;41.32;28.83;100675.47;4987372;28;51160;-52
2021/06/18 07:08:27;;;;;;;;;9.67;9.67;;;;;41.24;27.62;100678.03;4991080;28;50967;-53
2021/06/18 07:10:53;;;;;;;;;11.00;11.00;;;;;40.36;28.42;100679.31;4986227;28;51060;-51
2021/06/18 07:13:19;;;;;;;;;11.33;11.00;;;;;39.29;28.60;100681.81;4987417;28;51275;-52
2021/06/18 07:15:46;;;;;;;;;8.00;8.00;;;;;38.71;29.27;100678.25;4972390;28;50945;-50
2021/06/18 07:18:11;;;;;;;;;13.75;13.25;;;;;39.77;29.20;100682.44;4990730;28;51092;-53
2021/06/18 07:20:37;;;;;;;;;7.67;7.33;;;;;40.66;26.81;100683.94;4991692;28;51206;-51
2021/06/18 07:23:03;;;;;;;;;7.00;7.00;;;;;41.58;27.20;100689.44;4991171;28;51073;-54
2021/06/18 07:25:28;;;;;;;;;10.00;9.33;;;;;42.12;25.67;100696.31;4991037;28;51064;-51
2021/06/18 07:27:53;;;;;;;;;8.67;8.67;;;;;41.23;26.41;100688.06;4986887;28;51151;-50
2021/06/18 07:30:19;;;;;;;;;5.67;5.67;;;;;41.33;26.33;100701.75;4973365;28;51219;-51
2021/06/18 07:32:45;;;;;;;;;6.00;5.67;;;;;40.67;26.06;100695.69;4978765;28;51834;-55
2021/06/18 07:35:11;;;;;;;;;6.00;5.33;;;;;39.12;26.02;100692.19;4980624;28;51054;-54
2021/06/18 07:37:36;;;;;;;;;5.67;5.67;;;;;37.67;27.47;100696.97;4982945;28;51033;-51
2021/06/18 07:40:03;;;;;;;;;6.00;6.00;;;;;38.74;28.89;100701.56;4991795;28;50892;-53
2021/06/18 07:42:28;;;;;;;;;6.67;6.33;;;;;38.98;26.84;100708.72;4990329;28;52192;-53
2021/06/18 07:44:54;;;;;;;;;6.33;6.33;;;;;37.92;27.53;100711.41;4993558;28;51140;-52
2021/06/18 07:47:19;;;;;;;;;5.00;5.00;;;;;36.82;28.67;100701.25;4978512;28;51073;-52
2021/06/18 07:49:44;;;;;;;;;25.00;25.00;;;;;36.73;28.95;100709.03;4975050;28;50939;-51
2021/06/18 07:52:10;;;;;;;;;6.00;5.67;;;;;37.40;29.75;100700.72;4974399;28;51152;-50
2021/06/18 07:54:35;;;;;;;;;7.33;7.33;;;;;39.22;25.58;100691.44;4974124;28;51152;-53
2021/06/18 07:57:00;;;;;;;;;5.67;5.00;;;;;38.55;27.09;100697.56;4974698;28;51193;-53
2021/06/18 07:59:26;;;;;;;;;6.67;6.67;;;;;37.19;27.82;100697.75;4970618;28;51281;-52
2021/06/18 08:01:51;;;;;;;;;5.33;5.00;;;;;35.90;29.49;100702.91;4994001;28;51675;-54
2021/06/18 08:04:16;;;;;;;;;6.67;6.00;;;;;35.02;31.42;100709.38;4994594;28;51022;-52
2021/06/18 08:06:42;;;;;;;;;5.67;5.67;;;;;34.88;31.34;100696.78;4994062;28;51001;-53
2021/06/18 08:09:07;;;;;;;;;8.00;7.67;;;;;34.93;32.15;100698.25;4994442;28;50926;-53
2021/06/18 08:11:33;;;;;;;;;4.67;4.67;;;;;34.82;32.46;100704.28;4991952;28;52958;-52
2021/06/18 08:13:59;;;;;;;;;6.33;6.33;;;;;34.90;32.10;100697.53;4993756;28;50922;-54
2021/06/18 08:16:24;;;;;;;;;4.67;4.67;;;;;35.42;31.98;100696.06;4992809;28;51199;-53
2021/06/18 08:18:53;;;;;;;;;6.33;6.33;;;;;35.65;30.99;100684.75;4994269;28;51076;-54
2021/06/18 08:21:18;;;;;;;;;7.00;7.00;;;;;36.51;31.73;100682.63;4993677;28;51937;-51
2021/06/18 08:23:44;;;;;;;;;8.67;8.67;;;;;37.50;30.10;100679.25;4994122;28;50940;-51
2021/06/18 08:26:09;;;;;;;;;7.00;7.00;;;;;37.85;29.10;100680.34;4981994;28;51213;-52
2021/06/18 08:28:35;;;;;;;;;8.33;8.33;;;;;37.48;28.87;100684.78;4974761;28;51091;-53
2021/06/18 08:31:03;;;;;;;;;6.00;6.00;;;;;37.71;29.07;100676.81;4983325;28;51198;-52
2021/06/18 08:33:30;;;;;;;;;21.00;20.25;;;;;39.21;28.32;100687.88;4993957;28;51045;-54
2021/06/18 08:35:55;;;;;;;;;9.33;8.33;;;;;40.46;27.72;100682.13;4988280;28;51089;-52
2021/06/18 08:38:21;;;;;;;;;8.00;8.00;;;;;41.49;25.99;100676.69;4994800;28;50923;-51
2021/06/18 08:40:46;;;;;;;;;7.00;7.00;;;;;42.83;25.10;100676.97;4993409;28;51940;-50
2021/06/18 08:43:12;;;;;;;;;10.33;8.33;;;;;44.54;24.32;100672.63;4993681;28;50954;-52
2021/06/18 08:45:37;;;;;;;;;7.33;6.33;;;;;45.76;22.29;100675.09;4993742;28;51024;-49
2021/06/18 08:48:03;;;;;;;;;8.00;7.67;;;;;46.15;20.14;100675.41;4992641;28;50911;-52
2021/06/18 08:50:28;;;;;;;;;8.00;7.33;;;;;46.40;20.63;100665.28;4992057;28;51760;-54
2021/06/18 08:52:56;;;;;;;;;6.00;5.67;;;;;47.39;17.89;100665.84;4993142;28;51151;-53
2021/06/18 08:55:23;;;;;;;;;6.67;6.67;;;;;47.77;18.56;100681.59;4992986;28;51163;-50
2021/06/18 08:57:50;;;;;;;;;5.67;5.00;;;;;47.98;16.33;100671.78;4991761;28;51140;-51
2021/06/18 09:00:18;;;;;;;;;6.00;6.00;;;;;47.93;18.19;100677.84;4993411;28;51174;-51
2021/06/18 09:02:43;;;;;;;;;5.50;5.50;;;;;48.41;17.73;100679.44;4992718;28;51064;-52
2021/06/18 09:05:12;;;;;;;;;5.75;5.75;;;;;49.07;17.33;100671.44;4993176;28;51062;-52
2021/06/18 09:08:01;;;;;;;;;9.00;8.67;;;;;49.53;16.27;100671.09;4992231;28;51298;-52
2021/06/18 09:10:37;;;;;;;;;7.67;7.67;;;;;50.26;16.08;100673.81;4992565;28;51931;-51
2021/06/18 09:13:05;;;;;;;;;8.50;8.00;;;;;50.58;15.51;100679.75;4992944;28;50958;-52
2021/06/18 09:15:31;;;;;;;;;6.00;6.00;;;;;50.37;14.70;100677.94;4992979;28;51105;-52
2021/06/18 09:17:57;;;;;;;;;6.75;6.75;;;;;49.91;15.44;100674.63;4992845;28;51356;-56
2021/06/18 09:20:25;;;;;;;;;7.33;6.67;;;;;49.63;15.83;100680.94;4992473;28;51182;-52
2021/06/18 09:22:50;;;;;;;;;7.00;7.00;;;;;49.57;14.29;100679.84;4990624;28;50955;-54
2021/06/18 09:25:17;;;;;;;;;7.00;7.00;;;;;49.11;15.89;100681.03;4992207;28;51037;-58
2021/06/18 09:27:51;;;;;;;;;6.67;6.00;;;;;49.41;14.00;100667.19;4992862;28;50840;-53
2021/06/18 09:30:30;;;;;;;;;6.00;6.00;;;;;49.87;15.94;100673.31;4974210;28;52212;-52
2021/06/18 09:33:11;;;;;;;;;6.00;6.00;;;;;50.59;14.67;100681.47;4984033;28;51184;-51
2021/06/18 09:35:57;;;;;;;;;5.00;5.00;;;;;50.50;14.26;100666.97;4987537;28;50968;-53
2021/06/18 09:38:39;;;;;;;;;7.00;7.00;;;;;48.93;15.50;100679.53;5003594;28;51183;-50
2021/06/18 09:41:04;;;;;;;;;5.33;5.00;;;;;49.39;13.60;100677.53;4991988;28;51845;-53
2021/06/18 09:43:42;;;;;;;;;6.67;6.00;;;;;48.31;14.70;100681.63;4992548;28;51142;-53
2021/06/18 09:46:08;;;;;;;;;6.25;6.00;;;;;47.42;15.56;100692.13;4992832;28;51089;-50
2021/06/18 09:48:34;;;;;;;;;4.00;4.00;;;;;48.14;15.41;100687.28;4993036;28;51341;-52
2021/06/18 09:51:00;;;;;;;;;6.67;6.33;;;;;48.69;15.79;100683.47;4991616;28;51478;-52
2021/06/18 09:53:27;;;;;;;;;5.00;5.00;;;;;49.85;14.50;100691.97;4992695;28;51129;-52
2021/06/18 09:56:03;;;;;;;;;7.00;7.00;;;;;50.17;14.38;100696.06;4992440;28;51066;-52
2021/06/18 09:58:33;;;;;;;;;5.00;4.67;;;;;50.99;14.19;100694.59;4992668;28;51016;-51
2021/06/18 10:01:17;;;;;;;;;6.67;5.33;;;;;51.85;13.26;100703.34;4991733;28;52035;-53
2021/06/18 10:03:58;;;;;;;;;4.00;4.00;;;;;52.70;12.70;100700.00;4992589;28;50904;-55
2021/06/18 10:06:24;;;;;;;;;5.67;5.33;;;;;53.71;11.25;100701.38;4992307;28;50965;-51
2021/06/18 10:08:51;;;;;;;;;7.50;6.50;;;;;52.33;12.47;100697.78;4991176;28;51117;-52
2021/06/18 10:11:16;;;;;;;;;11.50;10.75;;;;;49.46;13.48;100699.66;4991195;28;52220;-52
2021/06/18 10:13:42;;;;;;;;;3.00;3.00;;;;;48.71;13.97;100701.50;4992187;28;51032;-51
2021/06/18 10:16:08;;;;;;;;;2.00;2.00;;;;;46.40;14.94;100706.44;4992619;28;51191;-52
2021/06/18 10:18:33;;;;;;;;;3.33;3.33;;;;;45.87;15.76;100703.19;4974789;28;51122;-52
2021/06/18 10:20:59;;;;;;;;;4.00;3.67;;;;;45.92;15.29;100695.31;4992090;28;51173;-48
2021/06/18 10:23:25;;;;;;;;;3.75;3.75;;;;;45.29;16.42;100686.66;4992198;28;50958;-52
2021/06/18 10:25:58;;;;;;;;;5.33;3.67;;;;;46.88;16.21;100700.13;4991997;28;51017;-52
2021/06/18 10:28:33;;;;;;;;;4.00;4.00;;;;;48.15;14.19;100716.53;4991819;28;50969;-50
2021/06/18 10:31:00;;;;;;;;;4.00;4.00;;;;;48.21;15.38;100714.94;4991325;28;51082;-51
2021/06/18 10:33:26;;;;;;;;;5.67;4.33;;;;;49.01;14.44;100695.09;4990795;28;51140;-53
2021/06/18 10:36:08;;;;;;;;;5.00;5.00;;;;;49.91;13.04;100696.69;4991365;28;51609;-53
2021/06/18 10:38:39;;;;;;;;;4.67;4.00;;;;;50.13;13.43;100699.44;4998621;28;51342;-52
2021/06/18 10:41:24;;;;;;;;;4.67;4.67;;;;;50.48;11.73;100710.50;4991179;28;52102;-51
2021/06/18 10:43:51;;;;;;;;;6.00;5.00;;;;;50.33;12.81;100716.13;4990474;28;51075;-53
2021/06/18 10:46:17;;;;;;;;;4.00;4.00;;;;;50.23;12.28;100705.44;4991360;28;51779;-52
2021/06/18 10:48:52;;;;;;;;;6.00;6.00;;;;;50.16;13.03;100710.09;4983332;28;51294;-52
2021/06/18 10:51:29;;;;;;;;;3.67;3.67;;;;;50.10;12.68;100705.34;4991270;28;51287;-50
2021/06/18 10:54:02;;;;;;;;;4.00;4.00;;;;;49.90;13.23;100708.78;4991479;28;51030;-52
2021/06/18 10:56:45;;;;;;;;;4.67;4.67;;;;;46.38;14.55;100722.25;4991182;28;51160;-52
2021/06/18 10:59:29;;;;;;;;;4.33;4.33;;;;;43.12;17.56;100722.38;4990939;28;50939;-52
2021/06/18 11:01:57;;;;;;;;;3.33;3.33;;;;;43.62;17.95;100709.31;4990655;28;51112;-53
2021/06/18 11:04:44;;;;;;;;;4.33;4.33;;;;;44.56;17.10;100712.50;4991386;28;51137;-50
2021/06/18 11:07:25;;;;;;;;;7.00;6.33;;;;;44.03;17.48;100706.13;4991182;28;50946;-53
2021/06/18 11:10:01;;;;;;;;;6.67;6.67;;;;;43.48;18.12;100714.31;4990971;28;50966;-50
2021/06/18 11:12:27;;;;;;;;;8.00;8.00;;;;;42.73;18.50;100717.94;4990875;28;51724;-52
2021/06/18 11:14:57;;;;;;;;;12.00;11.50;;;;;41.23;19.31;100708.97;4990897;28;51026;-52
2021/06/18 11:17:37;;;;;;;;;5.67;5.00;;;;;40.07;20.42;100721.63;4990594;28;51140;-51
2021/06/18 11:20:09;;;;;;;;;6.00;5.33;;;;;39.03;21.75;100717.34;5004678;28;51397;-53
2021/06/18 11:22:40;;;;;;;;;4.67;4.67;;;;;37.59;23.25;100711.06;4974776;28;51819;-53
2021/06/18 11:25:48;;;;;;;;;4.00;4.00;;;;;36.65;25.14;100717.69;4975037;28;50983;-52
2021/06/18 11:28:19;;;;;;;;;8.33;7.33;;;;;35.38;25.28;100718.84;4974557;28;51038;-51